sensor_id;sensor_type;location;lat;lon;timestamp;temperature;humidity
75049;DHT22;63803;53.120;8.764;2022-10-13T00:01:29;23.00;55.10
75049;DHT22;63803;53.120;8.764;2022-10-13T00:03:55;23.00;55.10
75049;DHT22;63803;53.120;8.764;2022-10-13T00:06:25;23.00;55.00
75049;DHT22;63803;53.120;8.764;2022-10-13T00:08:52;23.00;54.90
75049;DHT22;63803;53.120;8.764;2022-10-13T00:11:23;23.00;55.00
75049;DHT22;63803;53.120;8.764;2022-10-13T00:13:50;23.00;55.00
75049;DHT22;63803;53.120;8.764;2022-10-13T00:16:18;23.00;54.90
75049;DHT22;63803;53.120;8.764;2022-10-13T00:18:45;23.00;54.90
75049;DHT22;63803;53.120;8.764;2022-10-13T00:21:13;23.00;54.90
75049;DHT22;63803;53.120;8.764;2022-10-13T00:23:40;23.00;54.90
75049;DHT22;63803;53.120;8.764;2022-10-13T00:26:08;23.00;54.90
75049;DHT22;63803;53.120;8.764;2022-10-13T00:28:34;23.30;55.20
75049;DHT22;63803;53.120;8.764;2022-10-13T00:31:00;23.00;54.90
75049;DHT22;63803;53.120;8.764;2022-10-13T00:33:26;23.00;54.90
75049;DHT22;63803;53.120;8.764;2022-10-13T00:35:52;23.00;54.90
75049;DHT22;63803;53.120;8.764;2022-10-13T00:38:19;23.00;54.90
75049;DHT22;63803;53.120;8.764;2022-10-13T00:40:53;23.00;54.80
75049;DHT22;63803;53.120;8.764;2022-10-13T00:43:26;23.00;54.80
75049;DHT22;63803;53.120;8.764;2022-10-13T00:45:53;23.00;54.80
75049;DHT22;63803;53.120;8.764;2022-10-13T00:48:24;23.00;54.80
75049;DHT22;63803;53.120;8.764;2022-10-13T00:50:51;23.00;54.80
75049;DHT22;63803;53.120;8.764;2022-10-13T00:53:21;23.00;54.80
75049;DHT22;63803;53.120;8.764;2022-10-13T00:55:48;23.00;54.90
75049;DHT22;63803;53.120;8.764;2022-10-13T00:58:17;23.00;54.80
75049;DHT22;63803;53.120;8.764;2022-10-13T01:00:46;23.00;54.70
75049;DHT22;63803;53.120;8.764;2022-10-13T01:03:13;23.00;54.70
75049;DHT22;63803;53.120;8.764;2022-10-13T01:05:40;23.40;55.30
75049;DHT22;63803;53.120;8.764;2022-10-13T01:08:08;23.00;54.70
75049;DHT22;63803;53.120;8.764;2022-10-13T01:10:54;23.00;54.70
75049;DHT22;63803;53.120;8.764;2022-10-13T01:13:22;23.00;54.70
75049;DHT22;63803;53.120;8.764;2022-10-13T01:15:56;23.00;54.70
75049;DHT22;63803;53.120;8.764;2022-10-13T01:18:27;23.00;54.70
75049;DHT22;63803;53.120;8.764;2022-10-13T01:31:55;22.50;54.70
75049;DHT22;63803;53.120;8.764;2022-10-13T01:37:27;22.90;54.70
75049;DHT22;63803;53.120;8.764;2022-10-13T01:40:04;23.00;54.70
75049;DHT22;63803;53.120;8.764;2022-10-13T01:42:52;23.00;54.60
75049;DHT22;63803;53.120;8.764;2022-10-13T01:45:22;23.00;54.60
75049;DHT22;63803;53.120;8.764;2022-10-13T01:47:52;22.50;54.80
75049;DHT22;63803;53.120;8.764;2022-10-13T01:50:18;23.00;54.60
75049;DHT22;63803;53.120;8.764;2022-10-13T01:52:46;23.00;54.60
75049;DHT22;63803;53.120;8.764;2022-10-13T01:55:12;23.00;54.50
75049;DHT22;63803;53.120;8.764;2022-10-13T01:57:40;23.00;54.50
75049;DHT22;63803;53.120;8.764;2022-10-13T02:05:42;23.00;54.50
75049;DHT22;63803;53.120;8.764;2022-10-13T02:08:34;23.00;54.60
75049;DHT22;63803;53.120;8.764;2022-10-13T02:11:16;23.00;54.50
75049;DHT22;63803;53.120;8.764;2022-10-13T02:14:06;23.00;54.60
75049;DHT22;63803;53.120;8.764;2022-10-13T02:16:39;23.30;54.70
75049;DHT22;63803;53.120;8.764;2022-10-13T02:19:08;22.90;54.80
75049;DHT22;63803;53.120;8.764;2022-10-13T02:21:35;21.80;54.30
75049;DHT22;63803;53.120;8.764;2022-10-13T02:24:02;23.00;54.50
75049;DHT22;63803;53.120;8.764;2022-10-13T02:26:30;23.00;54.40
75049;DHT22;63803;53.120;8.764;2022-10-13T02:28:56;23.00;54.40
75049;DHT22;63803;53.120;8.764;2022-10-13T02:31:22;23.00;54.40
75049;DHT22;63803;53.120;8.764;2022-10-13T02:33:48;23.00;54.40
75049;DHT22;63803;53.120;8.764;2022-10-13T02:36:14;22.20;54.40
75049;DHT22;63803;53.120;8.764;2022-10-13T02:38:40;23.00;54.40
75049;DHT22;63803;53.120;8.764;2022-10-13T02:41:05;22.90;54.30
75049;DHT22;63803;53.120;8.764;2022-10-13T02:43:34;23.00;54.40
75049;DHT22;63803;53.120;8.764;2022-10-13T02:46:02;23.00;54.40
75049;DHT22;63803;53.120;8.764;2022-10-13T02:48:28;23.00;54.40
75049;DHT22;63803;53.120;8.764;2022-10-13T02:50:54;22.90;54.30
75049;DHT22;63803;53.120;8.764;2022-10-13T02:53:20;23.10;54.80
75049;DHT22;63803;53.120;8.764;2022-10-13T02:55:45;23.00;54.40
75049;DHT22;63803;53.120;8.764;2022-10-13T02:58:13;23.00;54.30
75049;DHT22;63803;53.120;8.764;2022-10-13T03:00:38;23.00;54.40
75049;DHT22;63803;53.120;8.764;2022-10-13T03:03:05;23.00;54.30
75049;DHT22;63803;53.120;8.764;2022-10-13T03:05:31;23.00;54.30
75049;DHT22;63803;53.120;8.764;2022-10-13T03:07:57;23.00;54.40
75049;DHT22;63803;53.120;8.764;2022-10-13T03:10:23;23.00;54.20
75049;DHT22;63803;53.120;8.764;2022-10-13T03:12:49;23.00;54.30
75049;DHT22;63803;53.120;8.764;2022-10-13T03:15:15;23.00;54.30
75049;DHT22;63803;53.120;8.764;2022-10-13T03:17:41;22.00;53.80
75049;DHT22;63803;53.120;8.764;2022-10-13T03:20:07;23.00;54.30
75049;DHT22;63803;53.120;8.764;2022-10-13T03:22:33;23.00;54.20
75049;DHT22;63803;53.120;8.764;2022-10-13T03:24:59;23.00;54.30
75049;DHT22;63803;53.120;8.764;2022-10-13T03:27:25;22.90;54.20
75049;DHT22;63803;53.120;8.764;2022-10-13T03:29:51;23.00;54.80
75049;DHT22;63803;53.120;8.764;2022-10-13T03:32:16;22.90;54.20
75049;DHT22;63803;53.120;8.764;2022-10-13T03:34:42;22.90;54.20
75049;DHT22;63803;53.120;8.764;2022-10-13T03:37:08;23.00;54.30
75049;DHT22;63803;53.120;8.764;2022-10-13T03:39:34;22.90;54.20
75049;DHT22;63803;53.120;8.764;2022-10-13T03:42:00;22.80;54.70
75049;DHT22;63803;53.120;8.764;2022-10-13T03:44:25;23.00;54.30
75049;DHT22;63803;53.120;8.764;2022-10-13T03:46:51;23.00;54.30
75049;DHT22;63803;53.120;8.764;2022-10-13T03:49:17;24.90;55.70
75049;DHT22;63803;53.120;8.764;2022-10-13T03:51:43;23.00;54.30
75049;DHT22;63803;53.120;8.764;2022-10-13T03:54:11;23.00;54.20
75049;DHT22;63803;53.120;8.764;2022-10-13T03:56:38;23.00;54.10
75049;DHT22;63803;53.120;8.764;2022-10-13T03:59:04;23.00;54.20
75049;DHT22;63803;53.120;8.764;2022-10-13T04:01:31;22.90;54.20
75049;DHT22;63803;53.120;8.764;2022-10-13T04:03:58;22.90;54.20
75049;DHT22;63803;53.120;8.764;2022-10-13T04:06:26;23.90;55.00
75049;DHT22;63803;53.120;8.764;2022-10-13T04:08:52;22.90;54.20
75049;DHT22;63803;53.120;8.764;2022-10-13T04:11:19;21.90;54.10
75049;DHT22;63803;53.120;8.764;2022-10-13T04:13:45;22.90;54.10
75049;DHT22;63803;53.120;8.764;2022-10-13T04:16:17;22.90;54.20
75049;DHT22;63803;53.120;8.764;2022-10-13T04:18:44;22.90;54.10
75049;DHT22;63803;53.120;8.764;2022-10-13T04:21:13;22.90;54.20
75049;DHT22;63803;53.120;8.764;2022-10-13T04:23:39;22.30;54.10
75049;DHT22;63803;53.120;8.764;2022-10-13T04:26:05;22.90;54.10
75049;DHT22;63803;53.120;8.764;2022-10-13T04:28:32;23.00;54.40
75049;DHT22;63803;53.120;8.764;2022-10-13T04:31:01;22.90;54.10
75049;DHT22;63803;53.120;8.764;2022-10-13T04:33:28;22.90;54.10
75049;DHT22;63803;53.120;8.764;2022-10-13T04:35:54;22.90;54.00
75049;DHT22;63803;53.120;8.764;2022-10-13T04:38:20;22.90;54.10
75049;DHT22;63803;53.120;8.764;2022-10-13T04:40:45;22.90;54.10
75049;DHT22;63803;53.120;8.764;2022-10-13T04:43:11;22.90;54.10
75049;DHT22;63803;53.120;8.764;2022-10-13T04:45:37;22.90;54.10
75049;DHT22;63803;53.120;8.764;2022-10-13T04:48:03;23.60;54.80
75049;DHT22;63803;53.120;8.764;2022-10-13T04:50:29;22.10;54.00
75049;DHT22;63803;53.120;8.764;2022-10-13T04:52:54;22.90;54.10
75049;DHT22;63803;53.120;8.764;2022-10-13T04:55:20;22.90;54.10
75049;DHT22;63803;53.120;8.764;2022-10-13T04:57:46;22.90;54.70
75049;DHT22;63803;53.120;8.764;2022-10-13T05:00:12;21.80;54.00
75049;DHT22;63803;53.120;8.764;2022-10-13T05:02:38;22.90;54.10
75049;DHT22;63803;53.120;8.764;2022-10-13T05:05:04;22.90;54.10
75049;DHT22;63803;53.120;8.764;2022-10-13T05:07:31;22.90;54.10
75049;DHT22;63803;53.120;8.764;2022-10-13T05:09:57;22.90;54.10
75049;DHT22;63803;53.120;8.764;2022-10-13T05:12:23;22.10;53.50
75049;DHT22;63803;53.120;8.764;2022-10-13T05:14:48;22.90;54.00
75049;DHT22;63803;53.120;8.764;2022-10-13T05:17:14;22.90;53.90
75049;DHT22;63803;53.120;8.764;2022-10-13T05:19:40;22.90;54.00
75049;DHT22;63803;53.120;8.764;2022-10-13T05:22:06;22.90;54.00
75049;DHT22;63803;53.120;8.764;2022-10-13T05:24:32;22.90;54.00
75049;DHT22;63803;53.120;8.764;2022-10-13T05:27:12;22.90;54.00
75049;DHT22;63803;53.120;8.764;2022-10-13T05:29:38;22.90;54.30
75049;DHT22;63803;53.120;8.764;2022-10-13T05:32:04;23.00;54.00
75049;DHT22;63803;53.120;8.764;2022-10-13T05:34:30;22.90;54.00
75049;DHT22;63803;53.120;8.764;2022-10-13T05:36:58;22.80;54.30
75049;DHT22;63803;53.120;8.764;2022-10-13T05:39:24;22.90;54.00
75049;DHT22;63803;53.120;8.764;2022-10-13T05:41:50;22.90;54.00
75049;DHT22;63803;53.120;8.764;2022-10-13T05:44:16;22.60;54.10
75049;DHT22;63803;53.120;8.764;2022-10-13T05:46:42;22.90;53.90
75049;DHT22;63803;53.120;8.764;2022-10-13T05:49:08;22.90;54.00
75049;DHT22;63803;53.120;8.764;2022-10-13T05:51:47;23.00;54.00
75049;DHT22;63803;53.120;8.764;2022-10-13T05:54:18;22.90;54.00
75049;DHT22;63803;53.120;8.764;2022-10-13T05:59:22;22.90;53.70
75049;DHT22;63803;53.120;8.764;2022-10-13T06:01:50;21.50;53.80
75049;DHT22;63803;53.120;8.764;2022-10-13T06:04:20;22.80;54.70
75049;DHT22;63803;53.120;8.764;2022-10-13T06:06:48;22.80;54.70
75049;DHT22;63803;53.120;8.764;2022-10-13T06:09:15;22.80;54.60
75049;DHT22;63803;53.120;8.764;2022-10-13T06:11:41;22.90;54.60
75049;DHT22;63803;53.120;8.764;2022-10-13T06:14:06;22.90;55.20
75049;DHT22;63803;53.120;8.764;2022-10-13T06:16:34;22.20;55.30
75049;DHT22;63803;53.120;8.764;2022-10-13T06:19:02;23.00;55.30
75049;DHT22;63803;53.120;8.764;2022-10-13T06:21:28;22.10;56.00
75049;DHT22;63803;53.120;8.764;2022-10-13T06:23:54;22.90;56.00
75049;DHT22;63803;53.120;8.764;2022-10-13T06:26:19;22.90;55.80
75049;DHT22;63803;53.120;8.764;2022-10-13T06:28:45;22.90;56.10
75049;DHT22;63803;53.120;8.764;2022-10-13T06:31:11;22.90;56.10
75049;DHT22;63803;53.120;8.764;2022-10-13T06:33:38;22.90;56.10
75049;DHT22;63803;53.120;8.764;2022-10-13T06:36:04;22.90;56.30
75049;DHT22;63803;53.120;8.764;2022-10-13T06:38:32;22.40;56.40
75049;DHT22;63803;53.120;8.764;2022-10-13T06:40:59;23.00;56.30
75049;DHT22;63803;53.120;8.764;2022-10-13T06:43:25;22.90;56.20
75049;DHT22;63803;53.120;8.764;2022-10-13T06:45:51;23.00;56.40
75049;DHT22;63803;53.120;8.764;2022-10-13T06:48:17;22.90;56.40
75049;DHT22;63803;53.120;8.764;2022-10-13T06:50:43;22.90;56.40
75049;DHT22;63803;53.120;8.764;2022-10-13T06:53:08;23.00;56.40
75049;DHT22;63803;53.120;8.764;2022-10-13T06:55:34;22.90;56.30
75049;DHT22;63803;53.120;8.764;2022-10-13T06:58:00;22.90;56.30
75049;DHT22;63803;53.120;8.764;2022-10-13T07:00:26;24.70;57.40
75049;DHT22;63803;53.120;8.764;2022-10-13T07:02:52;25.10;58.00
75049;DHT22;63803;53.120;8.764;2022-10-13T07:05:17;23.00;56.50
75049;DHT22;63803;53.120;8.764;2022-10-13T07:07:43;23.00;56.40
75049;DHT22;63803;53.120;8.764;2022-10-13T07:10:09;22.90;56.50
75049;DHT22;63803;53.120;8.764;2022-10-13T07:12:35;23.00;56.50
75049;DHT22;63803;53.120;8.764;2022-10-13T07:15:01;23.00;56.50
75049;DHT22;63803;53.120;8.764;2022-10-13T07:17:26;23.00;56.80
75049;DHT22;63803;53.120;8.764;2022-10-13T07:19:52;22.10;56.50
75049;DHT22;63803;53.120;8.764;2022-10-13T07:22:18;23.10;56.60
75049;DHT22;63803;53.120;8.764;2022-10-13T07:24:44;23.00;56.60
75049;DHT22;63803;53.120;8.764;2022-10-13T07:27:09;24.40;57.60
75049;DHT22;63803;53.120;8.764;2022-10-13T07:29:35;23.00;56.50
75049;DHT22;63803;53.120;8.764;2022-10-13T07:32:01;23.00;57.20
75049;DHT22;63803;53.120;8.764;2022-10-13T07:34:27;23.00;56.50
75049;DHT22;63803;53.120;8.764;2022-10-13T07:36:53;23.00;56.60
75049;DHT22;63803;53.120;8.764;2022-10-13T07:39:18;23.00;56.70
75049;DHT22;63803;53.120;8.764;2022-10-13T07:41:44;23.00;56.60
75049;DHT22;63803;53.120;8.764;2022-10-13T07:44:10;22.90;57.10
75049;DHT22;63803;53.120;8.764;2022-10-13T07:46:36;23.00;56.80
75049;DHT22;63803;53.120;8.764;2022-10-13T07:49:01;23.00;56.80
75049;DHT22;63803;53.120;8.764;2022-10-13T07:51:27;23.00;56.70
75049;DHT22;63803;53.120;8.764;2022-10-13T07:53:53;23.00;56.70
75049;DHT22;63803;53.120;8.764;2022-10-13T07:56:19;23.00;56.80
75049;DHT22;63803;53.120;8.764;2022-10-13T07:58:46;23.00;56.90
75049;DHT22;63803;53.120;8.764;2022-10-13T08:01:12;23.00;56.70
75049;DHT22;63803;53.120;8.764;2022-10-13T08:03:39;23.00;56.80
75049;DHT22;63803;53.120;8.764;2022-10-13T08:06:06;22.20;56.70
75049;DHT22;63803;53.120;8.764;2022-10-13T08:08:33;22.20;56.90
75049;DHT22;63803;53.120;8.764;2022-10-13T08:11:04;21.80;56.60
75049;DHT22;63803;53.120;8.764;2022-10-13T08:13:32;23.00;56.80
75049;DHT22;63803;53.120;8.764;2022-10-13T08:16:01;23.10;56.70
75049;DHT22;63803;53.120;8.764;2022-10-13T08:18:28;23.10;56.60
75049;DHT22;63803;53.120;8.764;2022-10-13T08:20:54;24.00;57.60
75049;DHT22;63803;53.120;8.764;2022-10-13T08:23:20;23.10;56.70
75049;DHT22;63803;53.120;8.764;2022-10-13T08:25:46;23.10;56.80
75049;DHT22;63803;53.120;8.764;2022-10-13T08:28:24;23.10;56.60
75049;DHT22;63803;53.120;8.764;2022-10-13T08:30:50;23.00;56.50
75049;DHT22;63803;53.120;8.764;2022-10-13T08:33:18;24.70;58.00
75049;DHT22;63803;53.120;8.764;2022-10-13T08:35:44;23.00;56.80
75049;DHT22;63803;53.120;8.764;2022-10-13T08:38:10;23.00;56.70
75049;DHT22;63803;53.120;8.764;2022-10-13T08:40:37;23.00;56.70
75049;DHT22;63803;53.120;8.764;2022-10-13T08:43:07;24.10;57.60
75049;DHT22;63803;53.120;8.764;2022-10-13T08:45:33;23.00;56.80
75049;DHT22;63803;53.120;8.764;2022-10-13T08:48:13;22.20;56.70
75049;DHT22;63803;53.120;8.764;2022-10-13T08:50:43;23.00;57.20
75049;DHT22;63803;53.120;8.764;2022-10-13T08:53:17;23.10;56.70
75049;DHT22;63803;53.120;8.764;2022-10-13T08:55:48;23.00;56.90
75049;DHT22;63803;53.120;8.764;2022-10-13T09:00:50;23.00;56.80
75049;DHT22;63803;53.120;8.764;2022-10-13T09:03:26;23.10;56.70
75049;DHT22;63803;53.120;8.764;2022-10-13T09:06:16;23.10;56.70
75049;DHT22;63803;53.120;8.764;2022-10-13T09:09:06;23.10;56.80
75049;DHT22;63803;53.120;8.764;2022-10-13T09:11:36;23.10;56.60
75049;DHT22;63803;53.120;8.764;2022-10-13T09:14:05;23.10;56.80
75049;DHT22;63803;53.120;8.764;2022-10-13T09:16:42;23.10;56.70
75049;DHT22;63803;53.120;8.764;2022-10-13T09:21:47;23.10;56.80
75049;DHT22;63803;53.120;8.764;2022-10-13T09:24:18;23.10;56.80
75049;DHT22;63803;53.120;8.764;2022-10-13T09:26:46;23.10;57.30
75049;DHT22;63803;53.120;8.764;2022-10-13T09:29:18;23.10;56.80
75049;DHT22;63803;53.120;8.764;2022-10-13T09:31:44;23.10;56.70
75049;DHT22;63803;53.120;8.764;2022-10-13T09:34:13;23.00;57.10
75049;DHT22;63803;53.120;8.764;2022-10-13T09:36:47;23.10;56.70
75049;DHT22;63803;53.120;8.764;2022-10-13T09:39:19;23.10;56.70
75049;DHT22;63803;53.120;8.764;2022-10-13T09:41:45;23.10;56.70
75049;DHT22;63803;53.120;8.764;2022-10-13T09:44:17;23.10;56.70
75049;DHT22;63803;53.120;8.764;2022-10-13T09:46:47;23.10;56.80
75049;DHT22;63803;53.120;8.764;2022-10-13T09:51:46;23.10;56.80
75049;DHT22;63803;53.120;8.764;2022-10-13T09:54:48;23.10;56.80
75049;DHT22;63803;53.120;8.764;2022-10-13T09:59:50;23.10;56.80
75049;DHT22;63803;53.120;8.764;2022-10-13T10:02:32;23.10;56.80
75049;DHT22;63803;53.120;8.764;2022-10-13T10:05:50;22.20;56.80
75049;DHT22;63803;53.120;8.764;2022-10-13T10:07:50;23.10;56.80
75049;DHT22;63803;53.120;8.764;2022-10-13T10:10:29;23.10;56.70
75049;DHT22;63803;53.120;8.764;2022-10-13T10:12:56;23.10;56.70
75049;DHT22;63803;53.120;8.764;2022-10-13T10:15:35;23.50;57.00
75049;DHT22;63803;53.120;8.764;2022-10-13T10:18:07;23.10;56.90
75049;DHT22;63803;53.120;8.764;2022-10-13T10:20:53;23.10;56.80
75049;DHT22;63803;53.120;8.764;2022-10-13T10:23:24;23.10;56.90
75049;DHT22;63803;53.120;8.764;2022-10-13T10:26:01;24.80;57.50
75049;DHT22;63803;53.120;8.764;2022-10-13T10:28:49;23.10;56.80
75049;DHT22;63803;53.120;8.764;2022-10-13T10:34:41;23.10;56.70
75049;DHT22;63803;53.120;8.764;2022-10-13T10:37:14;23.20;56.80
75049;DHT22;63803;53.120;8.764;2022-10-13T10:39:48;23.10;56.90
75049;DHT22;63803;53.120;8.764;2022-10-13T10:44:54;23.10;56.80
75049;DHT22;63803;53.120;8.764;2022-10-13T10:47:24;24.10;57.80
75049;DHT22;63803;53.120;8.764;2022-10-13T10:50:00;23.10;56.80
75049;DHT22;63803;53.120;8.764;2022-10-13T10:52:59;23.10;56.80
75049;DHT22;63803;53.120;8.764;2022-10-13T10:55:33;23.10;56.80
75049;DHT22;63803;53.120;8.764;2022-10-13T10:58:05;23.10;56.70
75049;DHT22;63803;53.120;8.764;2022-10-13T11:00:44;23.20;57.20
75049;DHT22;63803;53.120;8.764;2022-10-13T11:06:03;23.20;56.60
75049;DHT22;63803;53.120;8.764;2022-10-13T11:08:41;23.20;56.40
75049;DHT22;63803;53.120;8.764;2022-10-13T11:13:54;23.10;57.00
75049;DHT22;63803;53.120;8.764;2022-10-13T11:45:27;23.20;56.80
75049;DHT22;63803;53.120;8.764;2022-10-13T11:50:48;23.20;57.00
75049;DHT22;63803;53.120;8.764;2022-10-13T11:53:25;23.20;57.10
75049;DHT22;63803;53.120;8.764;2022-10-13T11:55:56;23.10;57.10
75049;DHT22;63803;53.120;8.764;2022-10-13T11:58:26;23.10;57.20
75049;DHT22;63803;53.120;8.764;2022-10-13T12:01:00;23.10;57.10
75049;DHT22;63803;53.120;8.764;2022-10-13T12:03:31;23.20;57.20
75049;DHT22;63803;53.120;8.764;2022-10-13T12:06:03;23.20;57.20
75049;DHT22;63803;53.120;8.764;2022-10-13T12:08:32;23.20;57.20
75049;DHT22;63803;53.120;8.764;2022-10-13T12:10:58;23.20;57.10
75049;DHT22;63803;53.120;8.764;2022-10-13T12:13:29;23.20;57.50
75049;DHT22;63803;53.120;8.764;2022-10-13T12:16:05;23.20;57.10
75049;DHT22;63803;53.120;8.764;2022-10-13T12:18:37;23.20;57.10
75049;DHT22;63803;53.120;8.764;2022-10-13T12:21:15;23.40;57.60
75049;DHT22;63803;53.120;8.764;2022-10-13T12:23:42;23.10;57.00
75049;DHT22;63803;53.120;8.764;2022-10-13T12:26:22;23.10;56.90
75049;DHT22;63803;53.120;8.764;2022-10-13T12:28:54;22.60;57.00
75049;DHT22;63803;53.120;8.764;2022-10-13T12:31:28;23.20;56.90
75049;DHT22;63803;53.120;8.764;2022-10-13T12:33:57;23.20;57.00
75049;DHT22;63803;53.120;8.764;2022-10-13T12:36:29;23.20;57.10
75049;DHT22;63803;53.120;8.764;2022-10-13T12:39:02;23.20;57.00
75049;DHT22;63803;53.120;8.764;2022-10-13T12:41:35;22.60;57.10
75049;DHT22;63803;53.120;8.764;2022-10-13T12:44:03;23.20;57.10
75049;DHT22;63803;53.120;8.764;2022-10-13T12:49:16;23.20;57.00
75049;DHT22;63803;53.120;8.764;2022-10-13T12:51:57;23.20;57.20
75049;DHT22;63803;53.120;8.764;2022-10-13T12:54:30;23.20;56.90
75049;DHT22;63803;53.120;8.764;2022-10-13T12:56:59;23.20;57.00
75049;DHT22;63803;53.120;8.764;2022-10-13T12:59:27;23.20;57.00
75049;DHT22;63803;53.120;8.764;2022-10-13T13:01:57;23.20;56.90
75049;DHT22;63803;53.120;8.764;2022-10-13T13:04:28;23.20;56.80
75049;DHT22;63803;53.120;8.764;2022-10-13T13:07:01;23.30;56.90
75049;DHT22;63803;53.120;8.764;2022-10-13T13:09:32;23.80;57.20
75049;DHT22;63803;53.120;8.764;2022-10-13T13:14:41;23.20;56.90
75049;DHT22;63803;53.120;8.764;2022-10-13T13:17:20;23.20;57.10
75049;DHT22;63803;53.120;8.764;2022-10-13T13:19:49;23.20;57.00
75049;DHT22;63803;53.120;8.764;2022-10-13T13:22:16;23.20;57.20
75049;DHT22;63803;53.120;8.764;2022-10-13T13:24:42;23.20;57.50
75049;DHT22;63803;53.120;8.764;2022-10-13T13:27:24;23.20;57.00
75049;DHT22;63803;53.120;8.764;2022-10-13T13:29:52;23.20;57.10
75049;DHT22;63803;53.120;8.764;2022-10-13T13:32:19;23.20;57.60
75049;DHT22;63803;53.120;8.764;2022-10-13T13:34:46;23.20;57.10
75049;DHT22;63803;53.120;8.764;2022-10-13T13:37:34;23.20;56.90
75049;DHT22;63803;53.120;8.764;2022-10-13T13:40:01;23.30;56.60
75049;DHT22;63803;53.120;8.764;2022-10-13T13:42:27;23.30;56.60
75049;DHT22;63803;53.120;8.764;2022-10-13T13:44:53;23.20;56.70
75049;DHT22;63803;53.120;8.764;2022-10-13T13:47:22;23.20;56.80
75049;DHT22;63803;53.120;8.764;2022-10-13T13:49:49;23.20;57.00
75049;DHT22;63803;53.120;8.764;2022-10-13T13:52:16;23.20;56.90
75049;DHT22;63803;53.120;8.764;2022-10-13T13:54:43;23.20;56.90
75049;DHT22;63803;53.120;8.764;2022-10-13T13:57:11;23.20;57.10
75049;DHT22;63803;53.120;8.764;2022-10-13T13:59:38;23.20;57.00
75049;DHT22;63803;53.120;8.764;2022-10-13T14:02:06;22.60;57.20
75049;DHT22;63803;53.120;8.764;2022-10-13T14:04:32;23.20;57.00
75049;DHT22;63803;53.120;8.764;2022-10-13T14:06:59;23.20;57.00
75049;DHT22;63803;53.120;8.764;2022-10-13T14:09:24;23.50;57.60
75049;DHT22;63803;53.120;8.764;2022-10-13T14:11:54;23.20;57.00
75049;DHT22;63803;53.120;8.764;2022-10-13T14:14:20;22.20;57.00
75049;DHT22;63803;53.120;8.764;2022-10-13T14:16:46;22.10;57.00
75049;DHT22;63803;53.120;8.764;2022-10-13T14:19:12;23.20;57.10
75049;DHT22;63803;53.120;8.764;2022-10-13T14:21:37;23.20;57.10
75049;DHT22;63803;53.120;8.764;2022-10-13T14:24:04;23.20;57.10
75049;DHT22;63803;53.120;8.764;2022-10-13T14:26:30;23.20;57.00
75049;DHT22;63803;53.120;8.764;2022-10-13T14:28:56;23.30;57.00
75049;DHT22;63803;53.120;8.764;2022-10-13T14:31:25;23.30;56.90
75049;DHT22;63803;53.120;8.764;2022-10-13T14:33:51;23.20;57.20
75049;DHT22;63803;53.120;8.764;2022-10-13T14:36:17;22.60;56.80
75049;DHT22;63803;53.120;8.764;2022-10-13T14:38:43;23.20;56.70
75049;DHT22;63803;53.120;8.764;2022-10-13T14:41:08;23.20;56.80
75049;DHT22;63803;53.120;8.764;2022-10-13T14:43:34;23.20;56.90
75049;DHT22;63803;53.120;8.764;2022-10-13T14:46:02;23.20;56.60
75049;DHT22;63803;53.120;8.764;2022-10-13T14:48:31;23.20;56.70
75049;DHT22;63803;53.120;8.764;2022-10-13T14:50:57;23.30;56.90
75049;DHT22;63803;53.120;8.764;2022-10-13T14:53:23;23.30;57.00
75049;DHT22;63803;53.120;8.764;2022-10-13T14:55:51;23.20;56.90
75049;DHT22;63803;53.120;8.764;2022-10-13T14:58:17;23.20;57.00
75049;DHT22;63803;53.120;8.764;2022-10-13T15:00:43;23.20;57.90
75049;DHT22;63803;53.120;8.764;2022-10-13T15:03:09;23.30;57.60
75049;DHT22;63803;53.120;8.764;2022-10-13T15:05:35;23.30;58.00
75049;DHT22;63803;53.120;8.764;2022-10-13T15:08:01;23.20;58.10
75049;DHT22;63803;53.120;8.764;2022-10-13T15:10:27;23.30;58.50
75049;DHT22;63803;53.120;8.764;2022-10-13T15:12:53;23.40;58.40
75049;DHT22;63803;53.120;8.764;2022-10-13T15:15:18;23.40;58.50
75049;DHT22;63803;53.120;8.764;2022-10-13T15:17:44;22.70;59.00
75049;DHT22;63803;53.120;8.764;2022-10-13T15:20:10;23.30;58.70
75049;DHT22;63803;53.120;8.764;2022-10-13T15:22:36;23.20;59.00
75049;DHT22;63803;53.120;8.764;2022-10-13T15:25:03;23.30;59.00
75049;DHT22;63803;53.120;8.764;2022-10-13T15:27:32;23.20;59.20
75049;DHT22;63803;53.120;8.764;2022-10-13T15:29:59;23.20;59.20
75049;DHT22;63803;53.120;8.764;2022-10-13T15:32:25;23.20;59.80
75049;DHT22;63803;53.120;8.764;2022-10-13T15:34:51;23.20;60.00
75049;DHT22;63803;53.120;8.764;2022-10-13T15:37:17;22.50;60.20
75049;DHT22;63803;53.120;8.764;2022-10-13T15:39:43;23.90;60.80
75049;DHT22;63803;53.120;8.764;2022-10-13T15:42:10;23.20;60.50
75049;DHT22;63803;53.120;8.764;2022-10-13T15:44:36;23.20;60.60
75049;DHT22;63803;53.120;8.764;2022-10-13T15:47:02;23.20;60.80
75049;DHT22;63803;53.120;8.764;2022-10-13T15:49:28;23.20;60.80
75049;DHT22;63803;53.120;8.764;2022-10-13T15:51:54;23.20;61.00
75049;DHT22;63803;53.120;8.764;2022-10-13T15:54:20;23.20;61.10
75049;DHT22;63803;53.120;8.764;2022-10-13T15:56:47;23.20;61.00
75049;DHT22;63803;53.120;8.764;2022-10-13T15:59:12;23.20;61.20
75049;DHT22;63803;53.120;8.764;2022-10-13T16:01:38;23.20;61.20
75049;DHT22;63803;53.120;8.764;2022-10-13T16:04:04;23.20;61.20
75049;DHT22;63803;53.120;8.764;2022-10-13T16:06:30;23.20;61.30
75049;DHT22;63803;53.120;8.764;2022-10-13T16:08:58;23.20;61.40
75049;DHT22;63803;53.120;8.764;2022-10-13T16:11:24;23.20;61.50
75049;DHT22;63803;53.120;8.764;2022-10-13T16:13:52;23.30;61.60
75049;DHT22;63803;53.120;8.764;2022-10-13T16:16:18;23.20;61.50
75049;DHT22;63803;53.120;8.764;2022-10-13T16:18:44;23.20;61.60
75049;DHT22;63803;53.120;8.764;2022-10-13T16:21:16;23.20;61.90
75049;DHT22;63803;53.120;8.764;2022-10-13T16:23:42;23.20;61.80
75049;DHT22;63803;53.120;8.764;2022-10-13T16:26:08;23.20;61.90
75049;DHT22;63803;53.120;8.764;2022-10-13T16:28:35;23.30;62.00
75049;DHT22;63803;53.120;8.764;2022-10-13T16:31:07;23.20;61.90
75049;DHT22;63803;53.120;8.764;2022-10-13T16:33:34;24.80;63.30
75049;DHT22;63803;53.120;8.764;2022-10-13T16:36:02;24.30;63.10
75049;DHT22;63803;53.120;8.764;2022-10-13T16:38:29;23.20;62.10
75049;DHT22;63803;53.120;8.764;2022-10-13T16:40:56;23.20;62.10
75049;DHT22;63803;53.120;8.764;2022-10-13T16:43:22;23.20;62.20
75049;DHT22;63803;53.120;8.764;2022-10-13T16:45:55;23.30;62.20
75049;DHT22;63803;53.120;8.764;2022-10-13T16:48:21;23.30;62.30
75049;DHT22;63803;53.120;8.764;2022-10-13T16:50:47;23.20;62.60
75049;DHT22;63803;53.120;8.764;2022-10-13T16:53:13;23.30;62.60
75049;DHT22;63803;53.120;8.764;2022-10-13T16:55:39;23.30;62.50
75049;DHT22;63803;53.120;8.764;2022-10-13T16:58:05;23.30;62.60
75049;DHT22;63803;53.120;8.764;2022-10-13T17:00:31;23.20;62.50